sensor_id;sensor_type;location;lat;lon;timestamp;temperature;humidity
8261;DHT22;64115;50.170;8.242;2023-03-24T00:00:17;10.00;99.90
8261;DHT22;64115;50.170;8.242;2023-03-24T00:02:46;10.00;99.90
8261;DHT22;64115;50.170;8.242;2023-03-24T00:05:20;10.00;99.90
8261;DHT22;64115;50.170;8.242;2023-03-24T00:07:49;10.00;99.90
8261;DHT22;64115;50.170;8.242;2023-03-24T00:10:18;10.00;99.90
8261;DHT22;64115;50.170;8.242;2023-03-24T00:12:47;10.00;99.90
8261;DHT22;64115;50.170;8.242;2023-03-24T00:15:16;10.00;99.90
8261;DHT22;64115;50.170;8.242;2023-03-24T00:17:44;10.00;99.90
8261;DHT22;64115;50.170;8.242;2023-03-24T00:20:15;10.00;99.90
8261;DHT22;64115;50.170;8.242;2023-03-24T00:22:45;9.90;99.90
8261;DHT22;64115;50.170;8.242;2023-03-24T00:25:16;9.90;99.90
8261;DHT22;64115;50.170;8.242;2023-03-24T00:27:44;9.90;99.90
8261;DHT22;64115;50.170;8.242;2023-03-24T00:30:14;9.90;99.90
8261;DHT22;64115;50.170;8.242;2023-03-24T00:32:42;9.90;99.90
8261;DHT22;64115;50.170;8.242;2023-03-24T00:35:10;9.90;99.90
8261;DHT22;64115;50.170;8.242;2023-03-24T00:37:39;10.00;99.90
8261;DHT22;64115;50.170;8.242;2023-03-24T00:40:09;9.90;99.90
8261;DHT22;64115;50.170;8.242;2023-03-24T00:42:40;9.80;99.90
8261;DHT22;64115;50.170;8.242;2023-03-24T00:45:12;9.70;99.90
8261;DHT22;64115;50.170;8.242;2023-03-24T00:47:40;9.60;99.90
8261;DHT22;64115;50.170;8.242;2023-03-24T00:50:13;9.60;99.90
8261;DHT22;64115;50.170;8.242;2023-03-24T00:52:41;9.50;99.90
8261;DHT22;64115;50.170;8.242;2023-03-24T00:55:13;9.40;99.90
8261;DHT22;64115;50.170;8.242;2023-03-24T00:57:43;9.40;99.90
8261;DHT22;64115;50.170;8.242;2023-03-24T01:00:16;9.40;99.90
8261;DHT22;64115;50.170;8.242;2023-03-24T01:02:46;9.40;99.90
8261;DHT22;64115;50.170;8.242;2023-03-24T01:05:14;9.40;99.90
8261;DHT22;64115;50.170;8.242;2023-03-24T01:07:42;9.40;99.90
8261;DHT22;64115;50.170;8.242;2023-03-24T01:10:12;9.40;99.90
8261;DHT22;64115;50.170;8.242;2023-03-24T01:12:39;9.50;99.90
8261;DHT22;64115;50.170;8.242;2023-03-24T01:15:14;9.50;99.90
8261;DHT22;64115;50.170;8.242;2023-03-24T01:17:42;9.40;99.90
8261;DHT22;64115;50.170;8.242;2023-03-24T01:20:12;9.50;99.90
8261;DHT22;64115;50.170;8.242;2023-03-24T01:22:40;9.50;99.90
8261;DHT22;64115;50.170;8.242;2023-03-24T01:25:11;9.50;99.90
8261;DHT22;64115;50.170;8.242;2023-03-24T01:27:41;9.50;99.90
8261;DHT22;64115;50.170;8.242;2023-03-24T01:30:12;9.50;99.90
8261;DHT22;64115;50.170;8.242;2023-03-24T01:32:39;9.60;99.90
8261;DHT22;64115;50.170;8.242;2023-03-24T01:35:06;9.50;99.90
8261;DHT22;64115;50.170;8.242;2023-03-24T01:37:33;9.50;99.90
8261;DHT22;64115;50.170;8.242;2023-03-24T01:40:00;9.60;99.90
8261;DHT22;64115;50.170;8.242;2023-03-24T01:42:31;9.60;99.90
8261;DHT22;64115;50.170;8.242;2023-03-24T01:45:01;9.60;99.90
8261;DHT22;64115;50.170;8.242;2023-03-24T01:47:49;9.60;99.90
8261;DHT22;64115;50.170;8.242;2023-03-24T01:50:16;9.60;99.90
8261;DHT22;64115;50.170;8.242;2023-03-24T01:52:43;9.70;99.90
8261;DHT22;64115;50.170;8.242;2023-03-24T01:55:14;9.70;99.90
8261;DHT22;64115;50.170;8.242;2023-03-24T01:57:46;9.70;99.90
8261;DHT22;64115;50.170;8.242;2023-03-24T02:00:16;9.70;99.90
8261;DHT22;64115;50.170;8.242;2023-03-24T02:02:45;9.70;99.90
8261;DHT22;64115;50.170;8.242;2023-03-24T02:05:15;9.70;99.90
8261;DHT22;64115;50.170;8.242;2023-03-24T02:07:49;9.70;99.90
8261;DHT22;64115;50.170;8.242;2023-03-24T02:10:19;9.70;99.90
8261;DHT22;64115;50.170;8.242;2023-03-24T02:12:47;9.80;99.90
8261;DHT22;64115;50.170;8.242;2023-03-24T02:15:16;9.80;99.90
8261;DHT22;64115;50.170;8.242;2023-03-24T02:17:55;9.90;99.90
8261;DHT22;64115;50.170;8.242;2023-03-24T02:26:54;9.90;99.90
8261;DHT22;64115;50.170;8.242;2023-03-24T02:29:54;9.90;99.90
8261;DHT22;64115;50.170;8.242;2023-03-24T02:41:53;9.90;99.90
8261;DHT22;64115;50.170;8.242;2023-03-24T02:44:28;9.90;99.90
8261;DHT22;64115;50.170;8.242;2023-03-24T02:47:02;9.90;99.90
8261;DHT22;64115;50.170;8.242;2023-03-24T02:49:34;9.90;99.90
8261;DHT22;64115;50.170;8.242;2023-03-24T02:52:06;9.80;99.90
8261;DHT22;64115;50.170;8.242;2023-03-24T02:54:40;10.00;99.90
8261;DHT22;64115;50.170;8.242;2023-03-24T02:57:15;10.00;99.90
8261;DHT22;64115;50.170;8.242;2023-03-24T02:59:48;10.00;99.90
8261;DHT22;64115;50.170;8.242;2023-03-24T03:02:19;9.90;99.90
8261;DHT22;64115;50.170;8.242;2023-03-24T03:04:52;9.90;99.90
8261;DHT22;64115;50.170;8.242;2023-03-24T03:07:22;9.90;99.90
8261;DHT22;64115;50.170;8.242;2023-03-24T03:09:56;9.80;99.90
8261;DHT22;64115;50.170;8.242;2023-03-24T03:12:30;9.70;99.90
8261;DHT22;64115;50.170;8.242;2023-03-24T03:15:00;9.70;99.90
8261;DHT22;64115;50.170;8.242;2023-03-24T03:17:31;9.80;99.90
8261;DHT22;64115;50.170;8.242;2023-03-24T03:20:03;9.80;99.90
8261;DHT22;64115;50.170;8.242;2023-03-24T03:22:38;9.90;99.90
8261;DHT22;64115;50.170;8.242;2023-03-24T03:25:08;9.90;99.90
8261;DHT22;64115;50.170;8.242;2023-03-24T03:27:39;9.90;99.90
8261;DHT22;64115;50.170;8.242;2023-03-24T03:30:11;9.90;99.90
8261;DHT22;64115;50.170;8.242;2023-03-24T03:32:46;9.90;99.90
8261;DHT22;64115;50.170;8.242;2023-03-24T03:35:22;9.90;99.90
8261;DHT22;64115;50.170;8.242;2023-03-24T03:37:55;9.90;99.90
8261;DHT22;64115;50.170;8.242;2023-03-24T03:40:26;10.00;99.90
8261;DHT22;64115;50.170;8.242;2023-03-24T03:42:55;10.00;99.90
8261;DHT22;64115;50.170;8.242;2023-03-24T03:45:22;10.10;99.90
8261;DHT22;64115;50.170;8.242;2023-03-24T03:47:49;10.20;99.90
8261;DHT22;64115;50.170;8.242;2023-03-24T03:50:17;10.20;99.90
8261;DHT22;64115;50.170;8.242;2023-03-24T03:52:44;10.20;99.90
8261;DHT22;64115;50.170;8.242;2023-03-24T03:55:12;10.10;99.90
8261;DHT22;64115;50.170;8.242;2023-03-24T03:57:40;10.10;99.90
8261;DHT22;64115;50.170;8.242;2023-03-24T04:00:14;10.10;99.90
8261;DHT22;64115;50.170;8.242;2023-03-24T04:02:50;10.10;99.90
8261;DHT22;64115;50.170;8.242;2023-03-24T04:05:26;10.00;99.90
8261;DHT22;64115;50.170;8.242;2023-03-24T04:08:11;10.00;99.90
8261;DHT22;64115;50.170;8.242;2023-03-24T04:11:03;10.10;99.90
8261;DHT22;64115;50.170;8.242;2023-03-24T04:13:38;10.00;99.90
8261;DHT22;64115;50.170;8.242;2023-03-24T04:16:14;10.00;99.90
8261;DHT22;64115;50.170;8.242;2023-03-24T04:18:56;10.00;99.90
8261;DHT22;64115;50.170;8.242;2023-03-24T04:21:41;10.00;99.90
8261;DHT22;64115;50.170;8.242;2023-03-24T04:24:23;9.90;99.90
8261;DHT22;64115;50.170;8.242;2023-03-24T04:26:55;9.90;99.90
8261;DHT22;64115;50.170;8.242;2023-03-24T04:29:32;9.90;99.90
8261;DHT22;64115;50.170;8.242;2023-03-24T04:32:13;9.90;99.90
8261;DHT22;64115;50.170;8.242;2023-03-24T04:34:45;9.90;99.90
8261;DHT22;64115;50.170;8.242;2023-03-24T04:37:18;10.00;99.90
8261;DHT22;64115;50.170;8.242;2023-03-24T04:39:47;9.90;99.90
8261;DHT22;64115;50.170;8.242;2023-03-24T04:42:19;9.90;99.90
8261;DHT22;64115;50.170;8.242;2023-03-24T04:44:47;9.90;99.90
8261;DHT22;64115;50.170;8.242;2023-03-24T04:47:18;9.80;99.90
8261;DHT22;64115;50.170;8.242;2023-03-24T04:49:47;9.80;99.90
8261;DHT22;64115;50.170;8.242;2023-03-24T04:52:15;9.80;99.90
8261;DHT22;64115;50.170;8.242;2023-03-24T04:54:42;9.80;99.90
8261;DHT22;64115;50.170;8.242;2023-03-24T04:57:09;9.80;99.90
8261;DHT22;64115;50.170;8.242;2023-03-24T04:59:36;9.70;99.90
8261;DHT22;64115;50.170;8.242;2023-03-24T05:02:03;9.70;99.90
8261;DHT22;64115;50.170;8.242;2023-03-24T05:04:31;9.70;99.90
8261;DHT22;64115;50.170;8.242;2023-03-24T05:07:01;9.70;99.90
8261;DHT22;64115;50.170;8.242;2023-03-24T05:09:28;9.80;99.90
8261;DHT22;64115;50.170;8.242;2023-03-24T05:11:56;9.70;99.90
8261;DHT22;64115;50.170;8.242;2023-03-24T05:14:24;9.80;99.90
8261;DHT22;64115;50.170;8.242;2023-03-24T05:16:51;9.80;99.90
8261;DHT22;64115;50.170;8.242;2023-03-24T05:19:18;9.80;99.90
8261;DHT22;64115;50.170;8.242;2023-03-24T05:21:46;9.90;99.90
8261;DHT22;64115;50.170;8.242;2023-03-24T05:24:13;9.90;99.90
8261;DHT22;64115;50.170;8.242;2023-03-24T05:26:40;9.90;99.90
8261;DHT22;64115;50.170;8.242;2023-03-24T05:29:07;9.90;99.90
8261;DHT22;64115;50.170;8.242;2023-03-24T05:31:34;9.90;99.90
8261;DHT22;64115;50.170;8.242;2023-03-24T05:34:01;9.90;99.90
8261;DHT22;64115;50.170;8.242;2023-03-24T05:36:28;9.90;99.90
8261;DHT22;64115;50.170;8.242;2023-03-24T05:38:56;9.90;99.90
8261;DHT22;64115;50.170;8.242;2023-03-24T05:41:23;10.00;99.90
8261;DHT22;64115;50.170;8.242;2023-03-24T05:43:50;10.00;99.90
8261;DHT22;64115;50.170;8.242;2023-03-24T05:46:17;10.00;99.90
8261;DHT22;64115;50.170;8.242;2023-03-24T05:48:44;10.00;99.90
8261;DHT22;64115;50.170;8.242;2023-03-24T05:51:12;10.00;99.90
8261;DHT22;64115;50.170;8.242;2023-03-24T05:53:39;10.00;99.90
8261;DHT22;64115;50.170;8.242;2023-03-24T05:56:08;10.00;99.90
8261;DHT22;64115;50.170;8.242;2023-03-24T05:58:37;10.00;99.90
8261;DHT22;64115;50.170;8.242;2023-03-24T06:01:08;10.10;99.90
8261;DHT22;64115;50.170;8.242;2023-03-24T06:03:35;10.10;99.90
8261;DHT22;64115;50.170;8.242;2023-03-24T06:06:04;10.10;99.90
8261;DHT22;64115;50.170;8.242;2023-03-24T06:08:32;10.10;99.90
8261;DHT22;64115;50.170;8.242;2023-03-24T06:11:01;10.10;99.90
8261;DHT22;64115;50.170;8.242;2023-03-24T06:13:30;10.10;99.90
8261;DHT22;64115;50.170;8.242;2023-03-24T06:15:57;10.20;99.90
8261;DHT22;64115;50.170;8.242;2023-03-24T06:18:24;10.20;99.90
8261;DHT22;64115;50.170;8.242;2023-03-24T06:20:52;10.20;99.90
8261;DHT22;64115;50.170;8.242;2023-03-24T06:23:22;10.20;99.90
8261;DHT22;64115;50.170;8.242;2023-03-24T06:25:50;10.20;99.90
8261;DHT22;64115;50.170;8.242;2023-03-24T06:28:18;10.20;99.90
8261;DHT22;64115;50.170;8.242;2023-03-24T06:30:46;10.20;99.90
8261;DHT22;64115;50.170;8.242;2023-03-24T06:33:14;10.20;99.90
8261;DHT22;64115;50.170;8.242;2023-03-24T06:35:41;10.20;99.90
8261;DHT22;64115;50.170;8.242;2023-03-24T06:38:08;10.30;99.90
8261;DHT22;64115;50.170;8.242;2023-03-24T06:40:36;10.30;99.90
8261;DHT22;64115;50.170;8.242;2023-03-24T06:43:03;10.30;99.90
8261;DHT22;64115;50.170;8.242;2023-03-24T06:45:30;10.30;99.90
8261;DHT22;64115;50.170;8.242;2023-03-24T06:48:05;10.30;99.90
8261;DHT22;64115;50.170;8.242;2023-03-24T06:50:32;10.20;99.90
8261;DHT22;64115;50.170;8.242;2023-03-24T06:53:00;10.20;99.90
8261;DHT22;64115;50.170;8.242;2023-03-24T06:55:27;10.30;99.90
8261;DHT22;64115;50.170;8.242;2023-03-24T06:57:54;10.30;99.90
8261;DHT22;64115;50.170;8.242;2023-03-24T07:00:21;10.30;99.90
8261;DHT22;64115;50.170;8.242;2023-03-24T07:02:50;10.30;99.90
8261;DHT22;64115;50.170;8.242;2023-03-24T07:05:19;10.30;99.90
8261;DHT22;64115;50.170;8.242;2023-03-24T07:07:46;10.30;99.90
8261;DHT22;64115;50.170;8.242;2023-03-24T07:10:14;10.40;99.90
8261;DHT22;64115;50.170;8.242;2023-03-24T07:12:44;10.30;99.90
8261;DHT22;64115;50.170;8.242;2023-03-24T07:15:12;10.40;99.90
8261;DHT22;64115;50.170;8.242;2023-03-24T07:17:40;10.30;99.90
8261;DHT22;64115;50.170;8.242;2023-03-24T07:20:08;10.30;99.90
8261;DHT22;64115;50.170;8.242;2023-03-24T07:22:36;10.30;99.90
8261;DHT22;64115;50.170;8.242;2023-03-24T07:25:04;10.40;99.90
8261;DHT22;64115;50.170;8.242;2023-03-24T07:27:33;10.40;99.90
8261;DHT22;64115;50.170;8.242;2023-03-24T07:30:01;10.30;99.90
8261;DHT22;64115;50.170;8.242;2023-03-24T07:32:29;10.40;99.90
8261;DHT22;64115;50.170;8.242;2023-03-24T07:34:59;10.40;99.90
8261;DHT22;64115;50.170;8.242;2023-03-24T07:37:27;10.40;99.90
8261;DHT22;64115;50.170;8.242;2023-03-24T07:39:55;10.40;99.90
8261;DHT22;64115;50.170;8.242;2023-03-24T07:42:23;10.40;99.90
8261;DHT22;64115;50.170;8.242;2023-03-24T07:44:51;10.40;99.90
8261;DHT22;64115;50.170;8.242;2023-03-24T07:47:18;10.50;99.90
8261;DHT22;64115;50.170;8.242;2023-03-24T07:49:45;10.50;99.90
8261;DHT22;64115;50.170;8.242;2023-03-24T07:52:12;10.50;99.90
8261;DHT22;64115;50.170;8.242;2023-03-24T07:54:39;10.50;99.90
8261;DHT22;64115;50.170;8.242;2023-03-24T07:57:08;10.50;99.90
8261;DHT22;64115;50.170;8.242;2023-03-24T07:59:35;10.60;99.90
8261;DHT22;64115;50.170;8.242;2023-03-24T08:02:02;10.70;99.90
8261;DHT22;64115;50.170;8.242;2023-03-24T08:04:29;10.70;99.90
8261;DHT22;64115;50.170;8.242;2023-03-24T08:06:57;10.70;99.90
8261;DHT22;64115;50.170;8.242;2023-03-24T08:09:24;10.70;99.90
8261;DHT22;64115;50.170;8.242;2023-03-24T08:11:52;10.70;99.90
8261;DHT22;64115;50.170;8.242;2023-03-24T08:14:21;10.60;99.90
8261;DHT22;64115;50.170;8.242;2023-03-24T08:16:48;10.50;99.90
8261;DHT22;64115;50.170;8.242;2023-03-24T08:19:15;10.50;99.90
8261;DHT22;64115;50.170;8.242;2023-03-24T08:21:42;10.50;99.90
8261;DHT22;64115;50.170;8.242;2023-03-24T08:24:09;10.50;99.90
8261;DHT22;64115;50.170;8.242;2023-03-24T08:26:36;10.60;99.90
8261;DHT22;64115;50.170;8.242;2023-03-24T08:29:03;10.70;99.90
8261;DHT22;64115;50.170;8.242;2023-03-24T08:31:33;10.70;99.90
8261;DHT22;64115;50.170;8.242;2023-03-24T08:34:01;10.60;99.90
8261;DHT22;64115;50.170;8.242;2023-03-24T08:36:29;10.60;99.90
8261;DHT22;64115;50.170;8.242;2023-03-24T08:38:56;10.60;99.90
8261;DHT22;64115;50.170;8.242;2023-03-24T08:41:24;10.60;99.90
8261;DHT22;64115;50.170;8.242;2023-03-24T08:43:55;10.60;99.90
8261;DHT22;64115;50.170;8.242;2023-03-24T08:46:22;10.70;99.90
8261;DHT22;64115;50.170;8.242;2023-03-24T08:48:50;10.70;99.90
8261;DHT22;64115;50.170;8.242;2023-03-24T08:51:17;10.70;99.90
8261;DHT22;64115;50.170;8.242;2023-03-24T08:53:44;10.70;99.90
8261;DHT22;64115;50.170;8.242;2023-03-24T08:56:11;10.70;99.90
8261;DHT22;64115;50.170;8.242;2023-03-24T08:58:39;10.80;99.90
8261;DHT22;64115;50.170;8.242;2023-03-24T09:01:06;10.80;99.90
8261;DHT22;64115;50.170;8.242;2023-03-24T09:03:33;10.80;99.90
8261;DHT22;64115;50.170;8.242;2023-03-24T09:06:02;10.80;99.90
8261;DHT22;64115;50.170;8.242;2023-03-24T09:08:29;10.90;99.90
8261;DHT22;64115;50.170;8.242;2023-03-24T09:10:56;11.00;99.90
8261;DHT22;64115;50.170;8.242;2023-03-24T09:13:23;11.00;99.90
8261;DHT22;64115;50.170;8.242;2023-03-24T09:15:52;10.90;99.90
8261;DHT22;64115;50.170;8.242;2023-03-24T09:18:20;10.80;99.90
8261;DHT22;64115;50.170;8.242;2023-03-24T09:20:47;10.40;99.90
8261;DHT22;64115;50.170;8.242;2023-03-24T09:23:17;10.30;99.90
8261;DHT22;64115;50.170;8.242;2023-03-24T09:25:44;10.10;99.90
8261;DHT22;64115;50.170;8.242;2023-03-24T09:28:11;9.90;99.90
8261;DHT22;64115;50.170;8.242;2023-03-24T09:30:40;9.90;99.90
8261;DHT22;64115;50.170;8.242;2023-03-24T09:33:08;10.00;99.90
8261;DHT22;64115;50.170;8.242;2023-03-24T09:35:35;10.00;99.90
8261;DHT22;64115;50.170;8.242;2023-03-24T09:38:02;9.90;99.90
8261;DHT22;64115;50.170;8.242;2023-03-24T09:40:32;9.80;99.90
8261;DHT22;64115;50.170;8.242;2023-03-24T09:43:14;9.80;99.90
8261;DHT22;64115;50.170;8.242;2023-03-24T09:45:50;9.80;99.90
8261;DHT22;64115;50.170;8.242;2023-03-24T09:48:23;9.70;99.90
8261;DHT22;64115;50.170;8.242;2023-03-24T09:50:55;9.60;99.90
8261;DHT22;64115;50.170;8.242;2023-03-24T09:53:29;9.50;99.90
8261;DHT22;64115;50.170;8.242;2023-03-24T09:56:03;9.40;99.90
8261;DHT22;64115;50.170;8.242;2023-03-24T09:58:34;9.40;99.90
8261;DHT22;64115;50.170;8.242;2023-03-24T10:01:11;9.40;99.90
8261;DHT22;64115;50.170;8.242;2023-03-24T10:03:39;9.40;99.90
8261;DHT22;64115;50.170;8.242;2023-03-24T10:06:09;9.60;99.90
8261;DHT22;64115;50.170;8.242;2023-03-24T10:08:41;9.60;99.90
8261;DHT22;64115;50.170;8.242;2023-03-24T10:11:20;9.70;99.90
8261;DHT22;64115;50.170;8.242;2023-03-24T10:14:01;9.80;99.90
8261;DHT22;64115;50.170;8.242;2023-03-24T10:16:36;9.90;99.90
8261;DHT22;64115;50.170;8.242;2023-03-24T10:19:17;9.90;99.90
8261;DHT22;64115;50.170;8.242;2023-03-24T10:21:53;10.10;99.90
8261;DHT22;64115;50.170;8.242;2023-03-24T10:24:28;10.20;99.90
8261;DHT22;64115;50.170;8.242;2023-03-24T10:27:04;10.20;99.90
8261;DHT22;64115;50.170;8.242;2023-03-24T10:29:34;10.30;99.90
8261;DHT22;64115;50.170;8.242;2023-03-24T10:32:11;10.50;99.90
8261;DHT22;64115;50.170;8.242;2023-03-24T10:34:42;10.60;99.90
8261;DHT22;64115;50.170;8.242;2023-03-24T10:37:11;10.70;99.90
8261;DHT22;64115;50.170;8.242;2023-03-24T10:39:40;10.70;99.90
8261;DHT22;64115;50.170;8.242;2023-03-24T10:42:13;10.80;99.90
8261;DHT22;64115;50.170;8.242;2023-03-24T10:44:41;10.80;99.90
8261;DHT22;64115;50.170;8.242;2023-03-24T10:47:10;10.80;99.90
8261;DHT22;64115;50.170;8.242;2023-03-24T10:49:51;10.90;99.90
8261;DHT22;64115;50.170;8.242;2023-03-24T10:52:18;11.00;99.90
8261;DHT22;64115;50.170;8.242;2023-03-24T10:54:53;11.10;99.90
8261;DHT22;64115;50.170;8.242;2023-03-24T10:57:24;11.10;99.90
8261;DHT22;64115;50.170;8.242;2023-03-24T10:59:54;11.20;99.90
8261;DHT22;64115;50.170;8.242;2023-03-24T11:02:23;11.40;99.90
8261;DHT22;64115;50.170;8.242;2023-03-24T11:04:54;11.50;99.90
8261;DHT22;64115;50.170;8.242;2023-03-24T11:07:24;11.60;99.90
8261;DHT22;64115;50.170;8.242;2023-03-24T11:10:05;11.50;99.90
8261;DHT22;64115;50.170;8.242;2023-03-24T11:12:35;11.40;99.90
8261;DHT22;64115;50.170;8.242;2023-03-24T11:15:14;11.20;99.90
8261;DHT22;64115;50.170;8.242;2023-03-24T11:17:43;11.20;99.90
8261;DHT22;64115;50.170;8.242;2023-03-24T11:20:17;11.10;99.90
8261;DHT22;64115;50.170;8.242;2023-03-24T11:22:58;11.20;99.90
8261;DHT22;64115;50.170;8.242;2023-03-24T11:25:27;11.50;99.90
8261;DHT22;64115;50.170;8.242;2023-03-24T11:27:59;11.80;99.90
8261;DHT22;64115;50.170;8.242;2023-03-24T11:30:28;11.90;99.90
8261;DHT22;64115;50.170;8.242;2023-03-24T11:32:59;12.00;99.90
8261;DHT22;64115;50.170;8.242;2023-03-24T11:35:27;11.90;99.90
8261;DHT22;64115;50.170;8.242;2023-03-24T11:37:56;12.00;99.90
8261;DHT22;64115;50.170;8.242;2023-03-24T11:40:24;12.10;99.90
8261;DHT22;64115;50.170;8.242;2023-03-24T11:42:54;12.00;99.90
8261;DHT22;64115;50.170;8.242;2023-03-24T11:45:27;11.90;99.90
8261;DHT22;64115;50.170;8.242;2023-03-24T11:47:57;11.80;99.90
8261;DHT22;64115;50.170;8.242;2023-03-24T11:50:27;11.90;99.90
8261;DHT22;64115;50.170;8.242;2023-03-24T11:53:00;12.10;99.90
8261;DHT22;64115;50.170;8.242;2023-03-24T11:55:34;12.30;99.90
8261;DHT22;64115;50.170;8.242;2023-03-24T11:58:10;12.40;99.90
8261;DHT22;64115;50.170;8.242;2023-03-24T12:00:47;12.50;99.90
8261;DHT22;64115;50.170;8.242;2023-03-24T12:03:36;12.80;99.90
8261;DHT22;64115;50.170;8.242;2023-03-24T12:06:15;13.00;99.90
8261;DHT22;64115;50.170;8.242;2023-03-24T12:08:53;13.30;99.90
8261;DHT22;64115;50.170;8.242;2023-03-24T12:11:31;13.70;99.90
8261;DHT22;64115;50.170;8.242;2023-03-24T12:14:00;14.10;99.90
8261;DHT22;64115;50.170;8.242;2023-03-24T12:16:39;14.40;99.90
8261;DHT22;64115;50.170;8.242;2023-03-24T12:19:25;14.50;99.90
8261;DHT22;64115;50.170;8.242;2023-03-24T12:22:02;14.50;99.90
8261;DHT22;64115;50.170;8.242;2023-03-24T12:24:44;14.20;99.90
8261;DHT22;64115;50.170;8.242;2023-03-24T12:27:22;13.80;99.90
8261;DHT22;64115;50.170;8.242;2023-03-24T12:29:59;13.80;99.90
8261;DHT22;64115;50.170;8.242;2023-03-24T12:32:47;14.00;99.90
8261;DHT22;64115;50.170;8.242;2023-03-24T12:35:42;13.80;99.90
8261;DHT22;64115;50.170;8.242;2023-03-24T12:38:35;13.70;99.90
8261;DHT22;64115;50.170;8.242;2023-03-24T12:41:28;13.30;99.90
8261;DHT22;64115;50.170;8.242;2023-03-24T12:44:21;13.00;99.90
8261;DHT22;64115;50.170;8.242;2023-03-24T12:46:58;12.90;99.90
8261;DHT22;64115;50.170;8.242;2023-03-24T12:49:45;12.80;99.90
8261;DHT22;64115;50.170;8.242;2023-03-24T12:52:29;12.60;99.90
8261;DHT22;64115;50.170;8.242;2023-03-24T12:55:03;12.70;99.90
8261;DHT22;64115;50.170;8.242;2023-03-24T12:57:34;13.00;99.90
8261;DHT22;64115;50.170;8.242;2023-03-24T13:00:05;13.30;99.90
8261;DHT22;64115;50.170;8.242;2023-03-24T13:02:39;13.70;99.90
8261;DHT22;64115;50.170;8.242;2023-03-24T13:05:16;14.00;99.90
8261;DHT22;64115;50.170;8.242;2023-03-24T13:07:48;13.80;99.90
8261;DHT22;64115;50.170;8.242;2023-03-24T13:10:21;13.90;99.90
8261;DHT22;64115;50.170;8.242;2023-03-24T13:12:53;14.30;99.90
8261;DHT22;64115;50.170;8.242;2023-03-24T13:15:24;14.40;99.90
8261;DHT22;64115;50.170;8.242;2023-03-24T13:18:04;14.30;99.90
8261;DHT22;64115;50.170;8.242;2023-03-24T13:20:39;14.00;99.90
8261;DHT22;64115;50.170;8.242;2023-03-24T13:23:25;13.70;99.90
8261;DHT22;64115;50.170;8.242;2023-03-24T13:25:59;13.10;99.90
8261;DHT22;64115;50.170;8.242;2023-03-24T13:28:38;13.10;99.90
8261;DHT22;64115;50.170;8.242;2023-03-24T13:31:07;13.20;99.90
8261;DHT22;64115;50.170;8.242;2023-03-24T13:33:36;13.40;99.90
8261;DHT22;64115;50.170;8.242;2023-03-24T13:36:30;13.60;99.90
8261;DHT22;64115;50.170;8.242;2023-03-24T13:39:03;14.00;99.90
8261;DHT22;64115;50.170;8.242;2023-03-24T13:41:35;14.10;99.90
8261;DHT22;64115;50.170;8.242;2023-03-24T13:44:07;14.10;99.90
8261;DHT22;64115;50.170;8.242;2023-03-24T13:46:35;14.00;99.90
8261;DHT22;64115;50.170;8.242;2023-03-24T13:49:05;14.20;99.90
8261;DHT22;64115;50.170;8.242;2023-03-24T13:51:41;14.40;99.90
8261;DHT22;64115;50.170;8.242;2023-03-24T13:54:13;14.50;99.90
8261;DHT22;64115;50.170;8.242;2023-03-24T13:56:48;14.40;99.90
8261;DHT22;64115;50.170;8.242;2023-03-24T13:59:27;14.30;99.90
8261;DHT22;64115;50.170;8.242;2023-03-24T14:05:09;14.30;99.90
8261;DHT22;64115;50.170;8.242;2023-03-24T14:07:46;14.40;99.90
8261;DHT22;64115;50.170;8.242;2023-03-24T14:10:39;14.50;99.90
8261;DHT22;64115;50.170;8.242;2023-03-24T14:13:19;14.50;99.90
8261;DHT22;64115;50.170;8.242;2023-03-24T14:15:49;14.50;99.90
8261;DHT22;64115;50.170;8.242;2023-03-24T14:18:38;14.40;99.90
8261;DHT22;64115;50.170;8.242;2023-03-24T14:21:07;14.30;99.90
8261;DHT22;64115;50.170;8.242;2023-03-24T14:23:38;14.10;99.90
8261;DHT22;64115;50.170;8.242;2023-03-24T14:26:09;14.00;99.90
8261;DHT22;64115;50.170;8.242;2023-03-24T14:28:39;13.70;99.90
8261;DHT22;64115;50.170;8.242;2023-03-24T14:31:19;13.70;99.90
8261;DHT22;64115;50.170;8.242;2023-03-24T14:33:59;13.90;99.90
8261;DHT22;64115;50.170;8.242;2023-03-24T14:36:32;13.90;99.90
8261;DHT22;64115;50.170;8.242;2023-03-24T14:39:25;13.90;99.90
8261;DHT22;64115;50.170;8.242;2023-03-24T14:41:54;13.70;99.90
8261;DHT22;64115;50.170;8.242;2023-03-24T14:44:50;13.60;99.90
8261;DHT22;64115;50.170;8.242;2023-03-24T14:47:19;13.60;99.90
8261;DHT22;64115;50.170;8.242;2023-03-24T14:49:48;13.60;99.90
8261;DHT22;64115;50.170;8.242;2023-03-24T14:52:19;13.70;99.90
8261;DHT22;64115;50.170;8.242;2023-03-24T14:54:51;13.90;99.90
8261;DHT22;64115;50.170;8.242;2023-03-24T14:57:22;14.00;99.90
8261;DHT22;64115;50.170;8.242;2023-03-24T14:59:56;14.10;99.90
8261;DHT22;64115;50.170;8.242;2023-03-24T15:02:34;13.90;99.90
8261;DHT22;64115;50.170;8.242;2023-03-24T15:08:10;13.80;99.90
8261;DHT22;64115;50.170;8.242;2023-03-24T15:10:46;13.70;99.90
8261;DHT22;64115;50.170;8.242;2023-03-24T15:13:39;13.70;99.90
8261;DHT22;64115;50.170;8.242;2023-03-24T15:16:16;13.50;99.90
8261;DHT22;64115;50.170;8.242;2023-03-24T15:18:46;13.50;99.90
8261;DHT22;64115;50.170;8.242;2023-03-24T15:21:15;13.60;99.90
8261;DHT22;64115;50.170;8.242;2023-03-24T15:23:48;13.60;99.90
8261;DHT22;64115;50.170;8.242;2023-03-24T15:26:19;13.70;99.90
8261;DHT22;64115;50.170;8.242;2023-03-24T15:28:53;13.70;99.90
8261;DHT22;64115;50.170;8.242;2023-03-24T15:31:22;13.70;99.90
8261;DHT22;64115;50.170;8.242;2023-03-24T15:33:49;13.70;99.90
8261;DHT22;64115;50.170;8.242;2023-03-24T15:36:20;13.50;99.90
8261;DHT22;64115;50.170;8.242;2023-03-24T15:38:57;13.40;99.90
8261;DHT22;64115;50.170;8.242;2023-03-24T15:41:24;13.30;99.90
8261;DHT22;64115;50.170;8.242;2023-03-24T15:43:52;13.20;99.90
8261;DHT22;64115;50.170;8.242;2023-03-24T15:46:23;13.20;99.90
8261;DHT22;64115;50.170;8.242;2023-03-24T15:48:52;13.30;99.90
8261;DHT22;64115;50.170;8.242;2023-03-24T15:51:46;13.40;99.90
8261;DHT22;64115;50.170;8.242;2023-03-24T15:54:23;13.40;99.90
8261;DHT22;64115;50.170;8.242;2023-03-24T15:57:02;13.40;99.90
8261;DHT22;64115;50.170;8.242;2023-03-24T15:59:33;13.30;99.90
8261;DHT22;64115;50.170;8.242;2023-03-24T16:02:03;13.20;99.90
8261;DHT22;64115;50.170;8.242;2023-03-24T16:04:31;13.10;99.90
8261;DHT22;64115;50.170;8.242;2023-03-24T16:06:58;13.10;99.90
8261;DHT22;64115;50.170;8.242;2023-03-24T16:09:35;13.10;99.90
8261;DHT22;64115;50.170;8.242;2023-03-24T16:12:09;13.00;99.90
8261;DHT22;64115;50.170;8.242;2023-03-24T16:14:36;12.90;99.90
8261;DHT22;64115;50.170;8.242;2023-03-24T16:17:04;13.00;99.90
8261;DHT22;64115;50.170;8.242;2023-03-24T16:19:31;13.00;99.90
8261;DHT22;64115;50.170;8.242;2023-03-24T16:21:58;13.00;99.90
8261;DHT22;64115;50.170;8.242;2023-03-24T16:24:28;12.90;99.90
8261;DHT22;64115;50.170;8.242;2023-03-24T16:26:55;12.80;99.90
8261;DHT22;64115;50.170;8.242;2023-03-24T16:29:22;12.80;99.90
8261;DHT22;64115;50.170;8.242;2023-03-24T16:31:51;12.60;99.90
8261;DHT22;64115;50.170;8.242;2023-03-24T16:34:19;12.60;99.90
8261;DHT22;64115;50.170;8.242;2023-03-24T16:36:48;12.50;99.90
8261;DHT22;64115;50.170;8.242;2023-03-24T16:39:17;12.30;99.90